PWSweather.com
Personal Weather Stations
Station Observations
PHMDWX
Perry Hall, MD 21236

Perry Hall, MD 21236

Lat: 39.418318, Lon: -76.490039

Elevation: 305

Station Type: Davis Vantage Pro

Latest ConditionsUpdated 9:30:03 AM EDT Sunday, Jun 25, 2017
Currently Today's Max Today's Min Today's Average
Temperature 76.7°F24.8°C 76.7°F24.8°C 67.6°F19.8°C 70.3°F21.3°C
Dew Point 63.2°F17.3°C 63.7°F17.6°C 59.5°F15.3°C 61.4°F16.3°C
Winds 1.9 mph W3.1 kmh W 4.8 mph WNW7.7 kmh WNW - 1.3 mph 2.1 kmh
Wind Gusts 6.0 mph9.7 kmh 7.0 mph11.3 kmh - -
Humidity 63% 85% 63% 74%
Pressure 29.98 in1015.2 mb 29.98 in1015.2 mb 29.90 in1012.5 mb -
Hour Temp Dew Point Humidity Winds Wind Gusts Pressure Precip Precip Rate Daily Precip Total
09:30 AM 76.7°F24.8°C 63.2°F17.3°C 63% 1.9 mph W3.1 kmh W 6.0 mph9.7 kmh 29.98 in1015.2 mb - 0.00 in0.0 mm 0.00 in0.0 mm
09:00 AM 75.4°F24.1°C 62.9°F17.2°C 65% 1.1 mph NW1.8 kmh NW 4.0 mph6.4 kmh 29.98 in1015.2 mb - 0.00 in0.0 mm 0.00 in0.0 mm
08:30 AM 74.5°F23.6°C 62.0°F16.7°C 65% 2.1 mph WNW3.4 kmh WNW 6.0 mph9.7 kmh 29.97 in1014.9 mb - 0.00 in0.0 mm 0.00 in0.0 mm
08:00 AM 72.5°F22.5°C 62.5°F16.9°C 71% 0.1 mph NW0.2 kmh NW 1.0 mph1.6 kmh 29.97 in1014.9 mb - 0.00 in0.0 mm 0.00 in0.0 mm
07:30 AM 69.4°F20.8°C 63.7°F17.6°C 82% Calm Calm -- 29.96 in1014.6 mb - 0.00 in0.0 mm 0.00 in0.0 mm
07:00 AM 68.1°F20.1°C 62.7°F17.1°C 83% Calm Calm -- 29.95 in1014.2 mb - 0.00 in0.0 mm 0.00 in0.0 mm
06:30 AM 67.8°F19.9°C 61.8°F16.6°C 81% Calm Calm -- 29.94 in1013.9 mb - 0.00 in0.0 mm 0.00 in0.0 mm
06:00 AM 68.1°F20.1°C 59.5°F15.3°C 74% 0.9 mph WSW1.4 kmh WSW 2.0 mph3.2 kmh 29.93 in1013.5 mb - 0.00 in0.0 mm 0.00 in0.0 mm
05:30 AM 68.4°F20.2°C 59.8°F15.4°C 74% 0.7 mph W1.1 kmh W 3.0 mph4.8 kmh 29.92 in1013.2 mb - 0.00 in0.0 mm 0.00 in0.0 mm
05:00 AM 69.3°F20.7°C 59.5°F15.3°C 71% 2.2 mph W3.5 kmh W 6.0 mph9.7 kmh 29.91 in1012.9 mb - 0.00 in0.0 mm 0.00 in0.0 mm
04:30 AM 69.4°F20.8°C 59.6°F15.3°C 71% 3.1 mph WNW5.0 kmh WNW 7.0 mph11.3 kmh 29.90 in1012.5 mb - 0.00 in0.0 mm 0.00 in0.0 mm
04:00 AM 69.9°F21.1°C 60.5°F15.8°C 72% 0.5 mph WNW0.8 kmh WNW 2.0 mph3.2 kmh 29.90 in1012.5 mb - 0.00 in0.0 mm 0.00 in0.0 mm
03:30 AM 70.8°F21.6°C 60.9°F16.1°C 71% 2.4 mph WNW3.9 kmh WNW 5.0 mph8.0 kmh 29.90 in1012.5 mb - 0.00 in0.0 mm 0.00 in0.0 mm
03:00 AM 71.8°F22.1°C 60.2°F15.7°C 67% 2.7 mph W4.3 kmh W 3.0 mph4.8 kmh 29.90 in1012.5 mb - 0.00 in0.0 mm 0.00 in0.0 mm
02:30 AM 71.6°F22.0°C 60.5°F15.8°C 68% 2.1 mph WNW3.4 kmh WNW 7.0 mph11.3 kmh 29.90 in1012.5 mb - 0.00 in0.0 mm 0.00 in0.0 mm
02:00 AM 70.3°F21.3°C 60.8°F16.0°C 72% 4.8 mph WNW7.7 kmh WNW 7.0 mph11.3 kmh 29.90 in1012.5 mb - 0.00 in0.0 mm 0.00 in0.0 mm
01:30 AM 68.6°F20.3°C 61.1°F16.2°C 77% 0.8 mph NW1.3 kmh NW 1.0 mph1.6 kmh 29.91 in1012.9 mb - 0.00 in0.0 mm 0.00 in0.0 mm
01:00 AM 67.9°F19.9°C 61.9°F16.6°C 81% 0.7 mph WSW1.1 kmh WSW 3.0 mph4.8 kmh 29.91 in1012.9 mb - 0.00 in0.0 mm 0.00 in0.0 mm
12:30 AM 67.6°F19.8°C 62.2°F16.8°C 83% 0.2 mph SW0.3 kmh SW 2.0 mph3.2 kmh 29.92 in1013.2 mb - 0.00 in0.0 mm 0.00 in0.0 mm
12:00 AM 67.8°F19.9°C 63.1°F17.3°C 85% Calm Calm -- 29.91 in1012.9 mb - 0.00 in0.0 mm 0.00 in0.0 mm